createdAt,value
2023-01-19T00:00:12.864Z,982.37
2023-01-19T00:01:12.852Z,982.43
2023-01-19T00:02:12.829Z,982.34
2023-01-19T00:03:12.893Z,982.30
2023-01-19T00:04:12.797Z,982.33
2023-01-19T00:05:12.780Z,982.44
2023-01-19T00:06:12.897Z,982.37
2023-01-19T00:07:12.763Z,982.38
2023-01-19T00:08:12.801Z,982.38
2023-01-19T00:09:12.754Z,982.40
2023-01-19T00:10:12.760Z,982.42
2023-01-19T00:11:12.742Z,982.40
2023-01-19T00:12:12.725Z,982.38
2023-01-19T00:13:12.795Z,982.44
2023-01-19T00:14:12.706Z,982.45
2023-01-19T00:15:12.747Z,982.41
2023-01-19T00:16:12.732Z,982.47
2023-01-19T00:17:12.725Z,982.48
2023-01-19T00:18:12.722Z,982.50
2023-01-19T00:19:12.753Z,982.46
2023-01-19T00:20:12.728Z,982.51
2023-01-19T00:21:12.666Z,982.50
2023-01-19T00:22:12.653Z,982.52
2023-01-19T00:23:12.664Z,982.51
2023-01-19T00:24:12.643Z,982.52
2023-01-19T00:25:12.623Z,982.44
2023-01-19T00:26:12.613Z,982.53
2023-01-19T00:27:12.620Z,982.53
2023-01-19T00:28:12.650Z,982.45
2023-01-19T00:29:12.593Z,982.45
2023-01-19T00:30:12.581Z,982.44
2023-01-19T00:31:12.639Z,982.47
2023-01-19T00:32:12.622Z,982.51
2023-01-19T00:33:12.634Z,982.56
2023-01-19T00:34:12.565Z,982.50
2023-01-19T00:35:12.593Z,982.54
2023-01-19T00:36:12.571Z,982.51
2023-01-19T00:37:12.700Z,982.52
2023-01-19T00:38:12.592Z,982.52
2023-01-19T00:39:12.529Z,982.55
2023-01-19T00:40:12.551Z,982.52
2023-01-19T00:41:12.548Z,982.59
2023-01-19T00:42:12.546Z,982.52
2023-01-19T00:43:12.542Z,982.55
2023-01-19T00:44:12.529Z,982.49
2023-01-19T00:45:12.524Z,982.51
2023-01-19T00:46:12.533Z,982.44
2023-01-19T00:47:12.534Z,982.46
2023-01-19T00:48:12.487Z,982.49
2023-01-19T00:49:12.484Z,982.45
2023-01-19T00:50:12.461Z,982.48
2023-01-19T00:51:12.468Z,982.54
2023-01-19T00:52:12.438Z,982.50
2023-01-19T00:53:12.452Z,982.57
2023-01-19T00:54:12.450Z,982.60
2023-01-19T00:55:12.484Z,982.56
2023-01-19T00:56:12.427Z,982.58
2023-01-19T00:57:12.478Z,982.66
2023-01-19T00:58:12.400Z,982.66
2023-01-19T00:59:12.430Z,982.67
2023-01-19T01:00:12.390Z,982.71
2023-01-19T01:01:12.499Z,982.70
2023-01-19T01:02:12.560Z,982.71
2023-01-19T01:03:12.470Z,982.69
2023-01-19T01:04:12.443Z,982.75
2023-01-19T01:05:12.389Z,982.70
2023-01-19T01:06:12.416Z,982.69
2023-01-19T01:07:12.345Z,982.60
2023-01-19T01:08:12.337Z,982.69
2023-01-19T01:09:12.411Z,982.68
2023-01-19T01:10:12.304Z,982.64
2023-01-19T01:11:12.317Z,982.68
2023-01-19T01:12:12.287Z,982.71
2023-01-19T01:13:20.499Z,982.67
2023-01-19T01:14:13.326Z,982.71
2023-01-19T01:15:13.325Z,982.69
2023-01-19T01:16:12.321Z,982.69
2023-01-19T01:17:12.279Z,982.65
2023-01-19T01:18:12.305Z,982.68
2023-01-19T01:19:12.270Z,982.65
2023-01-19T01:20:12.247Z,982.69
2023-01-19T01:21:12.242Z,982.59
2023-01-19T01:22:12.220Z,982.68
2023-01-19T01:23:12.232Z,982.71
2023-01-19T01:24:12.236Z,982.73
2023-01-19T01:25:12.202Z,982.65
2023-01-19T01:26:12.233Z,982.67
2023-01-19T01:27:12.206Z,982.70
2023-01-19T01:28:12.204Z,982.72
2023-01-19T01:29:12.173Z,982.69
2023-01-19T01:30:12.199Z,982.63
2023-01-19T01:31:12.236Z,982.71
2023-01-19T01:32:12.166Z,982.70
2023-01-19T01:33:12.152Z,982.68
2023-01-19T01:34:12.153Z,982.64
2023-01-19T01:35:12.173Z,982.74
2023-01-19T01:36:12.195Z,982.75
2023-01-19T01:37:12.131Z,982.70
2023-01-19T01:38:12.129Z,982.73
2023-01-19T01:39:12.104Z,982.75
2023-01-19T01:40:12.129Z,982.71
2023-01-19T01:41:12.082Z,982.70
2023-01-19T01:42:12.119Z,982.72
2023-01-19T01:43:12.072Z,982.74
2023-01-19T01:44:12.095Z,982.67
2023-01-19T01:45:12.108Z,982.70
2023-01-19T01:46:12.075Z,982.65
2023-01-19T01:47:12.078Z,982.72
2023-01-19T01:48:12.049Z,982.57
2023-01-19T01:49:12.044Z,982.68
2023-01-19T01:50:12.055Z,982.59
2023-01-19T01:51:12.017Z,982.64
2023-01-19T01:52:12.044Z,982.80
2023-01-19T01:53:12.365Z,982.80
2023-01-19T01:54:12.049Z,982.79
2023-01-19T01:55:12.053Z,982.72
2023-01-19T01:56:11.992Z,982.82
2023-01-19T01:57:11.991Z,982.80
2023-01-19T01:58:11.984Z,982.80
2023-01-19T01:59:11.969Z,982.85
2023-01-19T02:00:11.980Z,982.82
2023-01-19T02:01:12.041Z,982.74
2023-01-19T02:02:11.937Z,982.77
2023-01-19T02:03:11.972Z,982.80
2023-01-19T02:04:11.908Z,982.82
2023-01-19T02:05:11.910Z,982.82
2023-01-19T02:06:11.935Z,982.79
2023-01-19T02:07:11.931Z,982.78
2023-01-19T02:08:11.924Z,982.80
2023-01-19T02:09:11.910Z,982.84
2023-01-19T02:10:11.891Z,982.76
2023-01-19T02:11:11.901Z,982.79
2023-01-19T02:12:11.899Z,982.82
2023-01-19T02:13:11.915Z,982.81
2023-01-19T02:14:11.911Z,982.76
2023-01-19T02:15:11.854Z,982.74
2023-01-19T02:16:11.911Z,982.79
2023-01-19T02:17:11.859Z,982.75
2023-01-19T02:18:11.848Z,982.74
2023-01-19T02:19:11.868Z,982.80
2023-01-19T02:20:11.800Z,982.79
2023-01-19T02:21:11.828Z,982.80
2023-01-19T02:22:11.842Z,982.77
2023-01-19T02:23:11.812Z,982.76
2023-01-19T02:24:11.791Z,982.76
2023-01-19T02:25:11.772Z,982.74
2023-01-19T02:26:11.775Z,982.78
2023-01-19T02:27:11.823Z,982.71
2023-01-19T02:28:11.755Z,982.79
2023-01-19T02:29:11.744Z,982.76
2023-01-19T02:30:11.744Z,982.70
2023-01-19T02:31:11.724Z,982.74
2023-01-19T02:32:11.750Z,982.67
2023-01-19T02:33:11.722Z,982.69
2023-01-19T02:34:11.719Z,982.66
2023-01-19T02:35:11.731Z,982.63
2023-01-19T02:36:11.685Z,982.75
2023-01-19T02:37:11.727Z,982.69
2023-01-19T02:38:11.696Z,982.66
2023-01-19T02:39:11.650Z,982.68
2023-01-19T02:40:11.713Z,982.73
2023-01-19T02:41:11.637Z,982.70
2023-01-19T02:42:11.668Z,982.65
2023-01-19T02:43:11.626Z,982.58
2023-01-19T02:44:11.654Z,982.57
2023-01-19T02:45:11.623Z,982.62
2023-01-19T02:46:11.696Z,982.57
2023-01-19T02:47:11.629Z,982.59
2023-01-19T02:48:11.640Z,982.58
2023-01-19T02:49:11.613Z,982.55
2023-01-19T02:50:11.596Z,982.57
2023-01-19T02:51:11.567Z,982.53
2023-01-19T02:52:11.634Z,982.58
2023-01-19T02:53:11.569Z,982.56
2023-01-19T02:54:11.553Z,982.57
2023-01-19T02:55:11.547Z,982.58
2023-01-19T02:56:11.542Z,982.54
2023-01-19T02:57:11.547Z,982.51
2023-01-19T02:58:11.603Z,982.50
2023-01-19T02:59:11.588Z,982.52
2023-01-19T03:00:11.555Z,982.54
2023-01-19T03:01:11.596Z,982.44
2023-01-19T03:02:11.609Z,982.47
2023-01-19T03:03:11.523Z,982.42
2023-01-19T03:04:11.496Z,982.44
2023-01-19T03:05:11.483Z,982.44
2023-01-19T03:06:11.486Z,982.42
2023-01-19T03:07:11.489Z,982.40
2023-01-19T03:08:11.473Z,982.43
2023-01-19T03:09:11.456Z,982.44
2023-01-19T03:10:11.452Z,982.46
2023-01-19T03:11:11.511Z,982.45
2023-01-19T03:12:11.414Z,982.47
2023-01-19T03:13:11.446Z,982.42
2023-01-19T03:14:11.429Z,982.37
2023-01-19T03:15:11.425Z,982.38
2023-01-19T03:16:11.477Z,982.44
2023-01-19T03:17:11.400Z,982.52
2023-01-19T03:18:11.427Z,982.49
2023-01-19T03:19:11.386Z,982.50
2023-01-19T03:20:11.412Z,982.49
2023-01-19T03:21:11.365Z,982.44
2023-01-19T03:22:11.420Z,982.47
2023-01-19T03:23:11.420Z,982.54
2023-01-19T03:24:11.339Z,982.53
2023-01-19T03:25:11.325Z,982.51
2023-01-19T03:26:11.333Z,982.58
2023-01-19T03:27:11.443Z,982.55
2023-01-19T03:28:11.329Z,982.56
2023-01-19T03:29:11.302Z,982.52
2023-01-19T03:30:11.368Z,982.59
2023-01-19T03:31:11.322Z,982.55
2023-01-19T03:32:11.272Z,982.63
2023-01-19T03:33:11.329Z,982.60
2023-01-19T03:34:11.290Z,982.55
2023-01-19T03:35:11.243Z,982.59
2023-01-19T03:36:11.253Z,982.55
2023-01-19T03:37:11.269Z,982.55
2023-01-19T03:38:11.234Z,982.61
2023-01-19T03:39:11.271Z,982.63
2023-01-19T03:40:11.233Z,982.56
2023-01-19T03:41:11.209Z,982.56
2023-01-19T03:42:11.240Z,982.57
2023-01-19T03:43:11.211Z,982.63
2023-01-19T03:44:11.217Z,982.65
2023-01-19T03:45:11.195Z,982.61
2023-01-19T03:46:11.316Z,982.68
2023-01-19T03:47:11.182Z,982.62
2023-01-19T03:48:11.155Z,982.68
2023-01-19T03:49:11.227Z,982.72
2023-01-19T03:50:11.152Z,982.67
2023-01-19T03:51:11.131Z,982.71
2023-01-19T03:52:11.145Z,982.70
2023-01-19T03:53:11.994Z,982.76
2023-01-19T03:54:11.227Z,982.74
2023-01-19T03:55:11.121Z,982.71
2023-01-19T03:56:11.115Z,982.71
2023-01-19T03:57:11.118Z,982.77
2023-01-19T03:58:11.103Z,982.71
2023-01-19T03:59:11.095Z,982.73
2023-01-19T04:00:11.127Z,982.74
2023-01-19T04:01:11.215Z,982.72
2023-01-19T04:02:11.178Z,982.76
2023-01-19T04:03:11.120Z,982.78
2023-01-19T04:04:11.081Z,982.79
2023-01-19T04:05:11.082Z,982.81
2023-01-19T04:06:11.073Z,982.80
2023-01-19T04:07:11.028Z,982.78
2023-01-19T04:08:11.034Z,982.78
2023-01-19T04:09:11.017Z,982.81
2023-01-19T04:10:11.024Z,982.86
2023-01-19T04:11:11.019Z,982.85
2023-01-19T04:12:11.021Z,982.87
2023-01-19T04:13:10.974Z,982.82
2023-01-19T04:14:10.979Z,982.86
2023-01-19T04:15:11.019Z,982.86
2023-01-19T04:16:10.998Z,982.84
2023-01-19T04:17:10.945Z,982.84
2023-01-19T04:18:11.001Z,982.80
2023-01-19T04:19:10.951Z,982.80
2023-01-19T04:20:10.997Z,982.74
2023-01-19T04:21:10.927Z,982.78
2023-01-19T04:22:10.978Z,982.79
2023-01-19T04:23:10.936Z,982.73
2023-01-19T04:24:10.917Z,982.77
2023-01-19T04:25:10.962Z,982.74
2023-01-19T04:26:10.892Z,982.71
2023-01-19T04:27:10.904Z,982.77
2023-01-19T04:28:11.851Z,982.82
2023-01-19T04:29:10.864Z,982.81
2023-01-19T04:30:10.894Z,982.88
2023-01-19T04:31:10.949Z,982.82
2023-01-19T04:32:10.843Z,982.80
2023-01-19T04:33:10.821Z,982.88
2023-01-19T04:34:10.820Z,982.82
2023-01-19T04:35:10.827Z,982.82
2023-01-19T04:36:10.873Z,982.81
2023-01-19T04:37:10.844Z,982.81
2023-01-19T04:38:10.846Z,982.83
2023-01-19T04:39:10.797Z,982.81
2023-01-19T04:40:10.820Z,982.79
2023-01-19T04:41:10.841Z,982.75
2023-01-19T04:42:43.863Z,982.83
2023-01-19T04:43:10.749Z,982.81
2023-01-19T04:44:10.748Z,982.83
2023-01-19T04:45:10.739Z,982.78
2023-01-19T04:46:10.829Z,982.83
2023-01-19T04:47:10.723Z,982.81
2023-01-19T04:48:10.719Z,982.83
2023-01-19T04:49:10.705Z,982.86
2023-01-19T04:50:10.709Z,982.86
2023-01-19T04:51:10.722Z,982.74
2023-01-19T04:52:10.674Z,982.73
2023-01-19T04:53:11.695Z,982.67
2023-01-19T04:54:10.680Z,982.70
2023-01-19T04:55:10.668Z,982.71
2023-01-19T04:56:10.699Z,982.74
2023-01-19T04:57:10.661Z,982.74
2023-01-19T04:58:10.670Z,982.70
2023-01-19T04:59:10.649Z,982.74
2023-01-19T05:00:10.632Z,982.64
2023-01-19T05:01:10.711Z,982.65
2023-01-19T05:02:10.725Z,982.70
2023-01-19T05:03:10.656Z,982.72
2023-01-19T05:04:10.609Z,982.67
2023-01-19T05:05:10.599Z,982.75
2023-01-19T05:06:10.614Z,982.69
2023-01-19T05:07:10.590Z,982.71
2023-01-19T05:08:10.579Z,982.69
2023-01-19T05:09:10.574Z,982.64
2023-01-19T05:10:10.566Z,982.65
2023-01-19T05:11:10.581Z,982.68
2023-01-19T05:12:10.566Z,982.62
2023-01-19T05:13:10.541Z,982.66
2023-01-19T05:14:10.530Z,982.66
2023-01-19T05:15:10.535Z,982.69
2023-01-19T05:16:10.606Z,982.73
2023-01-19T05:17:10.509Z,982.67
2023-01-19T05:18:10.505Z,982.69
2023-01-19T05:19:10.498Z,982.75
2023-01-19T05:20:10.497Z,982.76
2023-01-19T05:21:10.512Z,982.76
2023-01-19T05:22:10.481Z,982.74
2023-01-19T05:23:10.467Z,982.66
2023-01-19T05:24:10.468Z,982.79
2023-01-19T05:25:10.473Z,982.76
2023-01-19T05:26:10.541Z,982.84
2023-01-19T05:27:10.443Z,982.83
2023-01-19T05:28:10.435Z,982.78
2023-01-19T05:29:10.436Z,982.79
2023-01-19T05:30:10.424Z,982.85
2023-01-19T05:31:10.552Z,982.86
2023-01-19T05:32:10.410Z,982.83
2023-01-19T05:33:10.395Z,982.82
2023-01-19T05:34:10.388Z,982.93
2023-01-19T05:35:10.387Z,982.87
2023-01-19T05:36:10.424Z,982.89
2023-01-19T05:37:10.376Z,982.94
2023-01-19T05:38:10.372Z,982.89
2023-01-19T05:39:10.356Z,982.95
2023-01-19T05:40:10.356Z,982.93
2023-01-19T05:41:10.371Z,982.95
2023-01-19T05:42:10.329Z,982.88
2023-01-19T05:43:10.325Z,982.81
2023-01-19T05:44:10.325Z,982.89
2023-01-19T05:45:10.315Z,982.85
2023-01-19T05:46:10.332Z,982.86
2023-01-19T05:47:10.303Z,982.85
2023-01-19T05:48:10.340Z,982.87
2023-01-19T05:49:10.287Z,982.82
2023-01-19T05:50:10.279Z,982.82
2023-01-19T05:51:10.294Z,982.85
2023-01-19T05:52:10.266Z,982.80
2023-01-19T05:53:10.260Z,982.86
2023-01-19T05:54:10.248Z,982.82
2023-01-19T05:55:10.247Z,982.83
2023-01-19T05:56:10.268Z,982.75
2023-01-19T05:57:10.230Z,982.79
2023-01-19T05:58:10.983Z,982.79
2023-01-19T05:59:10.209Z,982.88
2023-01-19T06:00:10.293Z,982.85
2023-01-19T06:01:10.273Z,982.93
2023-01-19T06:02:10.223Z,982.89
2023-01-19T06:03:10.270Z,982.90
2023-01-19T06:04:10.169Z,982.93
2023-01-19T06:05:10.172Z,982.91
2023-01-19T06:06:10.190Z,982.94
2023-01-19T06:07:10.154Z,982.92
2023-01-19T06:08:10.148Z,983.00
2023-01-19T06:09:10.150Z,982.93
2023-01-19T06:10:10.140Z,983.03
2023-01-19T06:11:10.176Z,982.93
2023-01-19T06:12:10.130Z,983.01
2023-01-19T06:13:10.122Z,982.99
2023-01-19T06:14:10.103Z,982.89
2023-01-19T06:15:10.119Z,983.04
2023-01-19T06:16:10.144Z,983.01
2023-01-19T06:17:10.094Z,983.01
2023-01-19T06:18:10.078Z,983.02
2023-01-19T06:19:10.072Z,982.98
2023-01-19T06:20:10.064Z,983.08
2023-01-19T06:21:10.059Z,983.11
2023-01-19T06:22:10.074Z,983.10
2023-01-19T06:23:10.050Z,983.03
2023-01-19T06:24:10.042Z,983.01
2023-01-19T06:25:10.028Z,983.09
2023-01-19T06:26:10.025Z,983.16
2023-01-19T06:27:10.040Z,983.15
2023-01-19T06:28:09.999Z,983.08
2023-01-19T06:29:10.009Z,983.11
2023-01-19T06:30:09.995Z,983.16
2023-01-19T06:31:10.092Z,983.14
2023-01-19T06:32:10.075Z,983.12
2023-01-19T06:33:09.972Z,983.20
2023-01-19T06:34:09.969Z,983.26
2023-01-19T06:35:09.947Z,983.21
2023-01-19T06:36:09.951Z,983.24
2023-01-19T06:37:09.975Z,983.30
2023-01-19T06:38:09.935Z,983.23
2023-01-19T06:39:09.933Z,983.24
2023-01-19T06:40:09.919Z,983.26
2023-01-19T06:41:09.912Z,983.18
2023-01-19T06:42:09.929Z,983.27
2023-01-19T06:43:09.915Z,983.23
2023-01-19T06:44:09.911Z,983.17
2023-01-19T06:45:09.892Z,983.23
2023-01-19T06:46:09.929Z,983.26
2023-01-19T06:47:15.290Z,983.23
2023-01-19T06:48:10.881Z,983.21
2023-01-19T06:49:09.875Z,983.23
2023-01-19T06:50:09.850Z,983.23
2023-01-19T06:51:09.846Z,983.22
2023-01-19T06:52:09.869Z,983.22
2023-01-19T06:53:09.828Z,983.21
2023-01-19T06:54:09.831Z,983.27
2023-01-19T06:55:09.814Z,983.20
2023-01-19T06:56:09.807Z,983.20
2023-01-19T06:57:09.822Z,983.29
2023-01-19T06:58:09.812Z,983.24
2023-01-19T06:59:09.786Z,983.29
2023-01-19T07:00:09.781Z,983.23
2023-01-19T07:01:09.917Z,983.24
2023-01-19T07:02:27.917Z,983.17
2023-01-19T07:03:11.806Z,983.24
2023-01-19T07:04:09.756Z,983.29
2023-01-19T07:05:09.755Z,983.29
2023-01-19T07:06:09.734Z,983.33
2023-01-19T07:07:09.753Z,983.31
2023-01-19T07:08:09.721Z,983.27
2023-01-19T07:09:09.721Z,983.35
2023-01-19T07:10:09.710Z,983.28
2023-01-19T07:11:22.362Z,983.30
2023-01-19T07:12:10.722Z,983.33
2023-01-19T07:13:09.694Z,983.29
2023-01-19T07:14:09.685Z,983.27
2023-01-19T07:15:09.672Z,983.32
2023-01-19T07:16:09.663Z,983.33
2023-01-19T07:17:09.683Z,983.39
2023-01-19T07:18:10.662Z,983.32
2023-01-19T07:19:09.649Z,983.38
2023-01-19T07:20:09.637Z,983.32
2023-01-19T07:21:09.634Z,983.34
2023-01-19T07:22:09.677Z,983.45
2023-01-19T07:23:09.614Z,983.34
2023-01-19T07:24:09.613Z,983.43
2023-01-19T07:25:09.639Z,983.38
2023-01-19T07:26:09.611Z,983.35
2023-01-19T07:27:09.612Z,983.42
2023-01-19T07:28:09.587Z,983.46
2023-01-19T07:29:09.576Z,983.47
2023-01-19T07:30:09.573Z,983.39
2023-01-19T07:31:09.725Z,983.36
2023-01-19T07:32:10.588Z,983.38
2023-01-19T07:33:09.545Z,983.43
2023-01-19T07:34:11.191Z,983.43
2023-01-19T07:35:09.533Z,983.37
2023-01-19T07:36:09.535Z,983.43
2023-01-19T07:37:09.566Z,983.37
2023-01-19T07:38:09.521Z,983.35
2023-01-19T07:39:09.524Z,983.35
2023-01-19T07:40:09.513Z,983.39
2023-01-19T07:41:09.499Z,983.38
2023-01-19T07:42:09.516Z,983.37
2023-01-19T07:43:09.496Z,983.41
2023-01-19T07:44:09.490Z,983.36
2023-01-19T07:45:09.469Z,983.37
2023-01-19T07:46:09.501Z,983.38
2023-01-19T07:47:09.482Z,983.40
2023-01-19T07:48:09.458Z,983.43
2023-01-19T07:49:09.447Z,983.42
2023-01-19T07:50:09.433Z,983.37
2023-01-19T07:51:12.498Z,983.37
2023-01-19T07:52:10.447Z,983.37
2023-01-19T07:53:09.413Z,983.38
2023-01-19T07:54:09.410Z,983.29
2023-01-19T07:55:09.396Z,983.39
2023-01-19T07:56:09.394Z,983.39
2023-01-19T07:57:09.405Z,983.40
2023-01-19T07:58:09.376Z,983.48
2023-01-19T07:59:09.367Z,983.44
2023-01-19T08:00:09.358Z,983.49
2023-01-19T08:01:09.490Z,983.40
2023-01-19T08:02:09.418Z,983.43
2023-01-19T08:03:09.339Z,983.43
2023-01-19T08:04:09.361Z,983.39
2023-01-19T08:05:09.328Z,983.40
2023-01-19T08:06:09.328Z,983.43
2023-01-19T08:07:09.339Z,983.45
2023-01-19T08:08:09.308Z,983.44
2023-01-19T08:09:09.288Z,983.44
2023-01-19T08:10:10.312Z,983.47
2023-01-19T08:11:09.288Z,983.44
2023-01-19T08:12:09.302Z,983.45
2023-01-19T08:13:09.281Z,983.50
2023-01-19T08:14:09.267Z,983.47
2023-01-19T08:15:09.252Z,983.49
2023-01-19T08:16:09.297Z,983.53
2023-01-19T08:17:09.267Z,983.52
2023-01-19T08:18:09.231Z,983.49
2023-01-19T08:19:09.245Z,983.54
2023-01-19T08:20:09.256Z,983.47
2023-01-19T08:21:09.226Z,983.48
2023-01-19T08:22:09.237Z,983.47
2023-01-19T08:23:09.199Z,983.52
2023-01-19T08:24:09.218Z,983.50
2023-01-19T08:25:09.182Z,983.51
2023-01-19T08:26:09.176Z,983.45
2023-01-19T08:27:09.244Z,983.48
2023-01-19T08:28:09.176Z,983.49
2023-01-19T08:29:09.172Z,983.44
2023-01-19T08:30:09.156Z,983.48
2023-01-19T08:31:20.148Z,983.52
2023-01-19T08:32:11.273Z,983.52
2023-01-19T08:33:09.121Z,983.53
2023-01-19T08:34:09.110Z,983.56
2023-01-19T08:35:09.106Z,983.54
2023-01-19T08:36:09.096Z,983.56
2023-01-19T08:37:09.120Z,983.52
2023-01-19T08:38:09.089Z,983.53
2023-01-19T08:39:09.087Z,983.51
2023-01-19T08:40:09.067Z,983.52
2023-01-19T08:41:09.063Z,983.58
2023-01-19T08:42:09.061Z,983.61
2023-01-19T08:43:09.101Z,983.62
2023-01-19T08:44:09.050Z,983.57
2023-01-19T08:45:09.028Z,983.58
2023-01-19T08:46:09.091Z,983.56
2023-01-19T08:47:09.072Z,983.58
2023-01-19T08:48:09.031Z,983.60
2023-01-19T08:49:08.994Z,983.51
2023-01-19T08:50:08.996Z,983.57
2023-01-19T08:51:08.993Z,983.53
2023-01-19T08:52:08.976Z,983.52
2023-01-19T08:53:08.998Z,983.52
2023-01-19T08:54:09.889Z,983.44
2023-01-19T08:55:08.952Z,983.54
2023-01-19T08:56:08.946Z,983.53
2023-01-19T08:57:08.938Z,983.41
2023-01-19T08:58:08.964Z,983.46
2023-01-19T08:59:11.307Z,983.57
2023-01-19T09:00:09.916Z,983.53
2023-01-19T09:01:08.951Z,983.64
2023-01-19T09:02:08.976Z,983.60
2023-01-19T09:03:08.973Z,983.66
2023-01-19T09:04:08.879Z,983.65
2023-01-19T09:05:08.883Z,983.70
2023-01-19T09:06:08.877Z,983.64
2023-01-19T09:07:08.863Z,983.65
2023-01-19T09:08:08.887Z,983.67
2023-01-19T09:09:08.843Z,983.69
2023-01-19T09:10:08.839Z,983.62
2023-01-19T09:11:08.829Z,983.63
2023-01-19T09:12:08.854Z,983.56
2023-01-19T09:13:08.852Z,983.55
2023-01-19T09:14:08.829Z,983.58
2023-01-19T09:15:08.828Z,983.56
2023-01-19T09:16:08.860Z,983.61
2023-01-19T09:17:08.784Z,983.57
2023-01-19T09:18:08.800Z,983.58
2023-01-19T09:19:08.786Z,983.52
2023-01-19T09:20:08.752Z,983.54
2023-01-19T09:21:08.748Z,983.55
2023-01-19T09:22:08.739Z,983.63
2023-01-19T09:23:08.781Z,983.60
2023-01-19T09:24:08.763Z,983.53
2023-01-19T09:25:08.748Z,983.63
2023-01-19T09:26:08.716Z,983.58
2023-01-19T09:27:08.708Z,983.65
2023-01-19T09:28:08.731Z,983.60
2023-01-19T09:29:08.707Z,983.68
2023-01-19T09:30:08.689Z,983.62
2023-01-19T09:31:08.817Z,983.65
2023-01-19T09:32:08.670Z,983.69
2023-01-19T09:33:08.685Z,983.66
2023-01-19T09:34:08.667Z,983.67
2023-01-19T09:35:08.654Z,983.70
2023-01-19T09:36:08.631Z,983.67
2023-01-19T09:37:08.628Z,983.71
2023-01-19T09:38:08.653Z,983.69
2023-01-19T09:39:08.611Z,983.61
2023-01-19T09:40:08.677Z,983.68
2023-01-19T09:41:08.598Z,983.70
2023-01-19T09:42:08.597Z,983.74
2023-01-19T09:43:08.615Z,983.74
2023-01-19T09:44:08.584Z,983.71
2023-01-19T09:45:09.920Z,983.76
2023-01-19T09:46:08.596Z,983.69
2023-01-19T09:47:08.562Z,983.68
2023-01-19T09:48:08.555Z,983.67
2023-01-19T09:49:08.570Z,983.76
2023-01-19T09:50:08.540Z,983.78
2023-01-19T09:51:08.535Z,983.76
2023-01-19T09:52:08.523Z,983.81
2023-01-19T09:53:08.516Z,983.75
2023-01-19T09:54:08.599Z,983.71
2023-01-19T09:55:08.503Z,983.62
2023-01-19T09:56:08.491Z,983.70
2023-01-19T09:57:08.492Z,983.72
2023-01-19T09:58:08.479Z,983.69
2023-01-19T09:59:08.527Z,983.67
2023-01-19T10:00:08.470Z,983.63
2023-01-19T10:01:08.620Z,983.62
2023-01-19T10:02:08.462Z,983.71
2023-01-19T10:03:08.482Z,983.68
2023-01-19T10:04:08.476Z,983.64
2023-01-19T10:05:08.426Z,983.72
2023-01-19T10:06:08.416Z,983.67
2023-01-19T10:07:08.442Z,983.70
2023-01-19T10:08:08.415Z,983.68
2023-01-19T10:09:08.439Z,983.65
2023-01-19T10:10:08.449Z,983.71
2023-01-19T10:11:08.414Z,983.68
2023-01-19T10:12:08.387Z,983.65
2023-01-19T10:13:08.363Z,983.70
2023-01-19T10:14:10.011Z,983.72
2023-01-19T10:15:08.364Z,983.70
2023-01-19T10:16:08.404Z,983.72
2023-01-19T10:17:08.342Z,983.70
2023-01-19T10:18:08.326Z,983.72
2023-01-19T10:19:08.351Z,983.78
2023-01-19T10:20:08.311Z,983.72
2023-01-19T10:21:08.304Z,983.73
2023-01-19T10:22:08.296Z,983.72
2023-01-19T10:23:08.307Z,983.72
2023-01-19T10:24:08.310Z,983.75
2023-01-19T10:25:08.276Z,983.77
2023-01-19T10:26:08.261Z,983.80
2023-01-19T10:27:08.260Z,983.75
2023-01-19T10:28:08.257Z,983.81
2023-01-19T10:29:08.652Z,983.81
2023-01-19T10:30:08.247Z,983.80
2023-01-19T10:31:08.385Z,983.85
2023-01-19T10:32:08.288Z,983.84
2023-01-19T10:33:08.231Z,983.81
2023-01-19T10:34:08.228Z,983.78
2023-01-19T10:35:08.196Z,983.88
2023-01-19T10:36:08.203Z,983.79
2023-01-19T10:37:08.266Z,983.82
2023-01-19T10:38:08.215Z,983.78
2023-01-19T10:39:08.212Z,983.86
2023-01-19T10:40:08.210Z,983.86
2023-01-19T10:41:08.149Z,983.79
2023-01-19T10:42:08.182Z,983.79
2023-01-19T10:43:40.956Z,983.85
2023-01-19T10:44:08.192Z,983.76
2023-01-19T10:45:08.214Z,983.79
2023-01-19T10:46:08.250Z,983.85
2023-01-19T10:47:08.178Z,983.81
2023-01-19T10:48:08.121Z,983.93
2023-01-19T10:49:08.125Z,983.79
2023-01-19T10:50:08.249Z,983.80
2023-01-19T10:51:08.229Z,983.82
2023-01-19T10:52:08.141Z,983.85
2023-01-19T10:53:08.181Z,983.84
2023-01-19T10:54:08.195Z,983.82
2023-01-19T10:55:08.237Z,983.82
2023-01-19T10:56:08.097Z,983.84
2023-01-19T10:57:08.176Z,983.83
2023-01-19T10:58:08.203Z,983.83
2023-01-19T10:59:08.157Z,983.82
2023-01-19T11:00:08.151Z,983.75
2023-01-19T11:01:08.176Z,983.82
2023-01-19T11:02:08.273Z,983.70
2023-01-19T11:03:08.114Z,983.81
2023-01-19T11:04:08.056Z,983.81
2023-01-19T11:05:08.247Z,983.73
2023-01-19T11:06:08.073Z,983.78
2023-01-19T11:07:08.050Z,983.73
2023-01-19T11:08:07.989Z,983.76
2023-01-19T11:09:08.032Z,983.71
2023-01-19T11:10:08.025Z,983.66
2023-01-19T11:11:08.039Z,983.74
2023-01-19T11:12:08.039Z,983.77
2023-01-19T11:13:07.981Z,983.81
2023-01-19T11:14:08.205Z,983.78
2023-01-19T11:15:08.030Z,983.66
2023-01-19T11:16:08.016Z,983.76
2023-01-19T11:17:07.972Z,983.82
2023-01-19T11:18:07.973Z,983.78
2023-01-19T11:19:08.058Z,983.74
2023-01-19T11:20:08.025Z,983.74
2023-01-19T11:21:07.920Z,983.72
2023-01-19T11:22:07.921Z,983.79
2023-01-19T11:23:07.951Z,983.72
2023-01-19T11:24:07.878Z,983.77
2023-01-19T11:25:07.900Z,983.72
2023-01-19T11:26:07.957Z,983.78
2023-01-19T11:27:07.999Z,983.77
2023-01-19T11:28:07.860Z,983.82
2023-01-19T11:29:07.817Z,983.83
2023-01-19T11:30:07.845Z,983.74
2023-01-19T11:31:07.878Z,983.73
2023-01-19T11:32:07.883Z,983.77
2023-01-19T11:33:07.844Z,983.79
2023-01-19T11:34:07.849Z,983.79
2023-01-19T11:35:07.810Z,983.80
2023-01-19T11:36:07.877Z,983.89
2023-01-19T11:37:07.797Z,983.85
2023-01-19T11:38:07.792Z,983.84
2023-01-19T11:39:07.736Z,983.77
2023-01-19T11:40:07.809Z,983.83
2023-01-19T11:41:07.815Z,983.75
2023-01-19T11:42:07.816Z,983.77
2023-01-19T11:43:07.716Z,983.83
2023-01-19T11:44:07.775Z,983.79
2023-01-19T11:45:07.783Z,983.73
2023-01-19T11:46:07.942Z,983.78
2023-01-19T11:47:07.692Z,983.69
2023-01-19T11:48:07.750Z,983.65
2023-01-19T11:49:07.749Z,983.64
2023-01-19T11:50:07.657Z,983.65
2023-01-19T11:51:07.817Z,983.70
2023-01-19T11:52:07.730Z,983.63
2023-01-19T11:53:07.684Z,983.72
2023-01-19T11:54:07.703Z,983.69
2023-01-19T11:55:07.819Z,983.70
2023-01-19T11:56:07.646Z,983.77
2023-01-19T11:57:07.613Z,983.78
2023-01-19T11:58:07.654Z,983.76
2023-01-19T11:59:07.643Z,983.73
2023-01-19T12:00:07.616Z,983.70
2023-01-19T12:01:07.668Z,983.76
2023-01-19T12:02:08.687Z,983.76
2023-01-19T12:03:07.721Z,983.77
2023-01-19T12:04:07.598Z,983.79
2023-01-19T12:05:07.618Z,983.72
2023-01-19T12:06:07.773Z,983.79
2023-01-19T12:07:07.586Z,983.77
2023-01-19T12:08:07.971Z,983.77
2023-01-19T12:09:07.533Z,983.85
2023-01-19T12:10:07.587Z,983.89
2023-01-19T12:11:07.567Z,983.83
2023-01-19T12:12:07.525Z,983.88
2023-01-19T12:13:07.525Z,983.81
2023-01-19T12:14:08.551Z,983.86
2023-01-19T12:15:07.616Z,983.87
2023-01-19T12:16:07.521Z,983.84
2023-01-19T12:17:07.549Z,983.86
2023-01-19T12:18:07.547Z,983.85
2023-01-19T12:19:07.469Z,983.87
2023-01-19T12:20:07.475Z,983.84
2023-01-19T12:21:07.481Z,983.73
2023-01-19T12:22:07.472Z,983.80
2023-01-19T12:23:07.472Z,983.80
2023-01-19T12:24:07.431Z,983.78
2023-01-19T12:25:07.446Z,983.84
2023-01-19T12:26:07.515Z,983.87
2023-01-19T12:27:07.882Z,983.85
2023-01-19T12:28:07.511Z,983.83